Time;durP1;ratioP1;P1;durP2;ratioP2;P2;SDS_P1;SDS_P2;PMS_P1;PMS_P2;Temp;Humidity;BMP_temperature;BMP_pressure;BME280_temperature;BME280_humidity;BME280_pressure;Samples;Min_cycle;Max_cycle;Signal;HPM_P1;HPM_P2
2023/10/18 00:01:59;;;;;;;;;;;4.40;99.90;;;;;;5006317;28;20515;-93
2023/10/18 00:04:28;;;;;;;;;;;5.80;99.90;;;;;;5018752;28;20222;-93
2023/10/18 00:06:54;;;;;;;;;;;5.80;99.90;;;;;;5021637;28;19955;-89
2023/10/18 00:09:45;;;;;;;;;;;5.70;99.90;;;;;;5039314;28;19970;-92
2023/10/18 00:12:16;;;;;;;;;;;5.70;99.90;;;;;;5025464;28;19975;-95
2023/10/18 00:14:45;;;;;;;;;;;5.70;99.90;;;;;;5007135;28;19920;-95
2023/10/18 00:17:12;;;;;;;;;;;5.00;99.90;;;;;;5025708;28;20003;-90
2023/10/18 00:19:41;;;;;;;;;;;5.70;99.90;;;;;;5000392;28;19967;-91
2023/10/18 00:22:09;;;;;;;;;;;5.70;99.90;;;;;;5024922;28;20007;-94
2023/10/18 00:24:39;;;;;;;;;;;5.60;99.90;;;;;;5038280;28;19917;-93
2023/10/18 00:27:05;;;;;;;;;;;5.60;99.90;;;;;;5048649;28;20011;-90
2023/10/18 00:29:31;;;;;;;;;;;5.60;99.90;;;;;;5031958;28;19996;-90
2023/10/18 00:31:59;;;;;;;;;;;5.60;99.90;;;;;;5022441;28;19916;-91
2023/10/18 00:34:25;;;;;;;;;;;5.60;99.90;;;;;;5042056;28;19916;-93
2023/10/18 00:36:50;;;;;;;;;;;5.50;99.90;;;;;;5026634;28;19999;-89
2023/10/18 00:39:29;;;;;;;;;;;5.50;99.90;;;;;;5052711;28;19916;-92
2023/10/18 00:41:57;;;;;;;;;;;5.50;99.90;;;;;;5024036;28;20024;-94
2023/10/18 00:44:22;;;;;;;;;;;5.50;99.90;;;;;;5032822;28;20169;-91
2023/10/18 00:46:50;;;;;;;;;;;5.30;99.90;;;;;;5038234;28;19923;-91
2023/10/18 00:49:16;;;;;;;;;;;5.40;99.90;;;;;;5042505;28;19965;-93
2023/10/18 00:51:43;;;;;;;;;;;5.30;99.90;;;;;;5025244;28;20399;-93
2023/10/18 00:54:11;;;;;;;;;;;5.20;99.90;;;;;;5056599;28;19923;-88
2023/10/18 00:56:38;;;;;;;;;;;5.30;99.90;;;;;;5014272;28;19920;-91
2023/10/18 00:59:07;;;;;;;;;;;3.80;99.90;;;;;;5041718;28;19923;-91
2023/10/18 01:01:35;;;;;;;;;;;5.20;99.90;;;;;;5027569;28;19920;-94
2023/10/18 01:04:04;;;;;;;;;;;5.20;99.90;;;;;;5042130;28;19916;-92
2023/10/18 01:06:30;;;;;;;;;;;5.20;99.90;;;;;;5057269;28;19916;-92
2023/10/18 01:08:56;;;;;;;;;;;5.20;99.90;;;;;;5025277;28;20379;-90
2023/10/18 01:11:31;;;;;;;;;;;5.20;99.90;;;;;;5057935;28;19946;-90
2023/10/18 01:14:00;;;;;;;;;;;5.20;99.90;;;;;;5040069;28;19917;-93
2023/10/18 01:16:35;;;;;;;;;;;5.10;99.90;;;;;;5025574;28;19931;-91
2023/10/18 01:19:01;;;;;;;;;;;5.10;99.90;;;;;;5048946;28;20363;-93
2023/10/18 01:21:27;;;;;;;;;;;5.10;99.90;;;;;;5051951;28;19921;-94
2023/10/18 01:23:55;;;;;;;;;;;5.00;99.90;;;;;;5017154;28;20271;-94
2023/10/18 01:26:21;;;;;;;;;;;5.00;99.90;;;;;;5024621;28;20476;-93
2023/10/18 01:28:46;;;;;;;;;;;5.00;99.90;;;;;;5021332;28;19923;-93
2023/10/18 01:31:12;;;;;;;;;;;4.90;99.90;;;;;;5021445;28;19916;-95
2023/10/18 01:33:39;;;;;;;;;;;5.00;99.90;;;;;;5012223;28;19924;-93
2023/10/18 01:36:06;;;;;;;;;;;5.00;99.90;;;;;;5014571;28;19924;-91
2023/10/18 01:38:33;;;;;;;;;;;5.00;99.90;;;;;;5017828;28;19917;-90
2023/10/18 01:41:08;;;;;;;;;;;3.60;99.90;;;;;;5020091;28;19975;-94
2023/10/18 01:43:36;;;;;;;;;;;5.00;99.90;;;;;;5021077;28;19917;-90
2023/10/18 01:46:04;;;;;;;;;;;4.90;99.90;;;;;;5021541;28;19920;-94
2023/10/18 01:48:30;;;;;;;;;;;4.90;99.90;;;;;;5021611;28;19972;-92
2023/10/18 01:50:56;;;;;;;;;;;4.90;99.90;;;;;;5020654;28;19963;-94
2023/10/18 01:53:23;;;;;;;;;;;4.90;99.90;;;;;;5029174;28;19985;-92
2023/10/18 01:55:53;;;;;;;;;;;4.90;99.90;;;;;;5025542;28;19921;-92
2023/10/18 01:58:24;;;;;;;;;;;4.80;99.90;;;;;;5004724;28;19916;-96
2023/10/18 02:00:51;;;;;;;;;;;4.80;99.90;;;;;;5004779;28;20019;-92
2023/10/18 02:03:19;;;;;;;;;;;4.80;99.90;;;;;;5020777;28;19916;-93
2023/10/18 02:05:47;;;;;;;;;;;4.70;99.90;;;;;;5021801;28;19920;-91
2023/10/18 02:08:13;;;;;;;;;;;4.70;99.90;;;;;;5019547;28;19928;-90
2023/10/18 02:10:42;;;;;;;;;;;4.60;99.90;;;;;;5020545;28;20307;-91
2023/10/18 02:13:10;;;;;;;;;;;4.60;99.90;;;;;;5014841;28;19924;-94
2023/10/18 02:15:39;;;;;;;;;;;4.60;99.90;;;;;;5050131;28;20372;-91
2023/10/18 02:18:06;;;;;;;;;;;4.60;99.90;;;;;;5020613;28;19916;-95
2023/10/18 02:20:31;;;;;;;;;;;4.60;99.90;;;;;;5024423;28;20712;-93
2023/10/18 02:23:00;;;;;;;;;;;4.60;99.90;;;;;;5047437;28;19926;-93
2023/10/18 02:28:08;;;;;;;;;;;4.60;99.90;;;;;;5051324;28;19920;-92
2023/10/18 02:30:38;;;;;;;;;;;4.50;99.90;;;;;;5040528;28;19916;-91
2023/10/18 02:33:06;;;;;;;;;;;4.60;99.90;;;;;;5030548;28;19916;-92
2023/10/18 02:35:33;;;;;;;;;;;4.50;99.90;;;;;;5071294;28;19920;-93
2023/10/18 02:38:08;;;;;;;;;;;4.50;99.90;;;;;;5023984;28;19938;-93
2023/10/18 02:40:38;;;;;;;;;;;4.50;99.90;;;;;;5054108;28;19921;-94
2023/10/18 02:43:14;;;;;;;;;;;4.50;99.90;;;;;;5040975;28;20008;-90
2023/10/18 02:45:42;;;;;;;;;;;4.40;99.90;;;;;;5014802;28;19955;-93
2023/10/18 02:48:13;;;;;;;;;;;4.40;99.90;;;;;;5056738;28;19916;-90
2023/10/18 02:50:40;;;;;;;;;;;4.40;99.90;;;;;;5057868;28;19916;-90
2023/10/18 02:53:06;;;;;;;;;;;4.40;99.90;;;;;;5023318;28;19916;-91
2023/10/18 02:55:38;;;;;;;;;;;4.40;99.90;;;;;;5039686;28;19927;-90
2023/10/18 02:58:06;;;;;;;;;;;4.40;99.90;;;;;;5028361;28;19920;-90
2023/10/18 03:00:34;;;;;;;;;;;4.40;99.90;;;;;;5048916;28;19931;-95
2023/10/18 03:03:01;;;;;;;;;;;4.40;99.90;;;;;;5023509;28;19931;-92
2023/10/18 03:05:28;;;;;;;;;;;4.40;99.90;;;;;;5043300;28;19971;-93
2023/10/18 03:07:54;;;;;;;;;;;4.40;99.90;;;;;;5059540;28;20275;-90
2023/10/18 03:10:32;;;;;;;;;;;4.40;99.90;;;;;;5022882;28;19923;-92
2023/10/18 03:12:58;;;;;;;;;;;4.50;99.90;;;;;;5029286;28;20023;-91
2023/10/18 03:15:24;;;;;;;;;;;4.50;99.90;;;;;;5055587;28;20351;-93
2023/10/18 03:17:50;;;;;;;;;;;4.60;99.90;;;;;;5032815;28;19923;-91
2023/10/18 03:20:26;;;;;;;;;;;4.60;99.90;;;;;;5040611;28;19955;-90
2023/10/18 03:22:52;;;;;;;;;;;4.60;99.90;;;;;;5042133;28;19990;-92
2023/10/18 03:25:26;;;;;;;;;;;4.60;99.90;;;;;;5030993;28;19917;-93
2023/10/18 03:27:57;;;;;;;;;;;4.60;99.90;;;;;;5048013;28;20031;-91
2023/10/18 03:30:39;;;;;;;;;;;4.60;99.90;;;;;;5065681;28;19924;-89
2023/10/18 03:33:07;;;;;;;;;;;4.50;99.90;;;;;;5033344;28;19995;-94
2023/10/18 03:35:37;;;;;;;;;;;4.50;99.90;;;;;;5036094;28;19916;-91
2023/10/18 03:38:07;;;;;;;;;;;4.50;99.90;;;;;;5039092;28;20002;-93
2023/10/18 03:40:36;;;;;;;;;;;4.50;99.90;;;;;;5034716;28;19920;-89
2023/10/18 03:43:08;;;;;;;;;;;4.40;99.90;;;;;;5035471;28;19920;-93
2023/10/18 03:48:26;;;;;;;;;;;4.50;99.90;;;;;;5060941;28;19920;-90
2023/10/18 03:50:55;;;;;;;;;;;4.40;99.90;;;;;;5023416;28;19927;-95
2023/10/18 03:53:21;;;;;;;;;;;4.50;99.90;;;;;;5023130;28;19916;-91
2023/10/18 03:55:49;;;;;;;;;;;5.40;99.90;;;;;;5029798;28;20537;-92
2023/10/18 03:58:22;;;;;;;;;;;4.50;99.90;;;;;;5023106;28;20411;-91
2023/10/18 04:00:48;;;;;;;;;;;4.40;99.90;;;;;;5046114;28;19920;-91
2023/10/18 04:03:20;;;;;;;;;;;4.40;99.90;;;;;;5043517;28;19922;-91
2023/10/18 04:05:46;;;;;;;;;;;4.40;99.90;;;;;;5054850;28;19923;-94
2023/10/18 04:08:17;;;;;;;;;;;4.40;99.90;;;;;;5061800;28;19920;-92
2023/10/18 04:10:55;;;;;;;;;;;4.40;99.90;;;;;;5021738;28;19954;-92
2023/10/18 04:13:24;;;;;;;;;;;4.50;99.90;;;;;;5042103;28;19920;-94
2023/10/18 04:15:59;;;;;;;;;;;4.40;99.90;;;;;;5023807;28;19917;-95
2023/10/18 04:18:30;;;;;;;;;;;4.30;99.90;;;;;;5028205;28;20287;-93
2023/10/18 04:20:59;;;;;;;;;;;4.30;99.90;;;;;;5035830;28;19921;-89
2023/10/18 04:23:28;;;;;;;;;;;4.30;99.90;;;;;;5038613;28;19946;-92
2023/10/18 04:26:10;;;;;;;;;;;4.20;99.90;;;;;;5038816;28;19916;-94
2023/10/18 04:28:39;;;;;;;;;;;4.40;99.90;;;;;;5038291;28;19943;-94
2023/10/18 04:31:08;;;;;;;;;;;4.30;99.90;;;;;;5056210;28;19955;-93
2023/10/18 04:36:12;;;;;;;;;;;4.20;99.90;;;;;;5037541;28;19917;-92
2023/10/18 04:38:47;;;;;;;;;;;4.20;99.90;;;;;;5072712;28;19916;-89
2023/10/18 04:41:36;;;;;;;;;;;4.20;99.90;;;;;;5029938;28;20263;-92
2023/10/18 04:44:05;;;;;;;;;;;4.10;99.90;;;;;;5056260;28;19921;-94
2023/10/18 04:46:37;;;;;;;;;;;4.10;99.90;;;;;;5040291;28;19920;-92
2023/10/18 04:54:17;;;;;;;;;;;4.10;99.90;;;;;;5058314;28;19916;-93
2023/10/18 04:56:47;;;;;;;;;;;4.20;99.90;;;;;;5028702;28;19916;-91
2023/10/18 05:01:56;;;;;;;;;;;4.70;99.90;;;;;;5058293;28;20556;-93
2023/10/18 05:04:28;;;;;;;;;;;4.20;99.90;;;;;;5044233;28;19979;-93
2023/10/18 05:06:55;;;;;;;;;;;4.20;99.90;;;;;;5025675;28;19923;-92
2023/10/18 05:09:43;;;;;;;;;;;4.30;99.90;;;;;;5048863;28;19967;-90
2023/10/18 05:15:06;;;;;;;;;;;4.30;99.90;;;;;;5060405;28;20006;-94
2023/10/18 05:17:44;;;;;;;;;;;4.30;99.90;;;;;;5038371;28;20329;-93
2023/10/18 05:22:48;;;;;;;;;;;4.20;99.90;;;;;;5051276;28;19964;-91
2023/10/18 05:27:46;;;;;;;;;;;4.30;99.90;;;;;;5061534;28;19916;-90
2023/10/18 05:30:16;;;;;;;;;;;4.30;99.90;;;;;;5040305;28;19928;-90
2023/10/18 05:35:26;;;;;;;;;;;4.20;99.90;;;;;;5072738;28;19916;-93
2023/10/18 05:38:06;;;;;;;;;;;4.20;99.90;;;;;;5035070;28;20379;-91
2023/10/18 05:43:06;;;;;;;;;;;4.50;99.90;;;;;;5070080;28;19924;-92
2023/10/18 05:45:32;;;;;;;;;;;4.30;99.90;;;;;;5027471;28;19923;-91
2023/10/18 05:47:58;;;;;;;;;;;4.40;99.90;;;;;;5027023;28;19917;-89
2023/10/18 05:50:24;;;;;;;;;;;4.30;99.90;;;;;;5030106;28;20011;-92
2023/10/18 05:52:57;;;;;;;;;;;4.30;99.90;;;;;;5036018;28;19948;-91
2023/10/18 05:55:23;;;;;;;;;;;4.30;99.90;;;;;;5023317;28;20375;-90
2023/10/18 05:57:50;;;;;;;;;;;4.40;99.90;;;;;;5044257;28;19916;-91
2023/10/18 06:00:19;;;;;;;;;;;4.50;99.90;;;;;;5038217;28;19923;-94
2023/10/18 06:02:45;;;;;;;;;;;4.40;99.90;;;;;;5047403;28;19917;-90
2023/10/18 06:05:11;;;;;;;;;;;4.40;99.90;;;;;;5023593;28;19916;-92
2023/10/18 06:07:37;;;;;;;;;;;4.40;99.90;;;;;;5044804;28;20003;-93
2023/10/18 06:10:16;;;;;;;;;;;4.40;99.90;;;;;;5035650;28;19958;-91
2023/10/18 06:12:46;;;;;;;;;;;4.40;99.90;;;;;;5011769;28;20568;-91
2023/10/18 06:15:13;;;;;;;;;;;4.50;99.90;;;;;;5034900;28;19925;-88
2023/10/18 06:20:27;;;;;;;;;;;4.50;99.90;;;;;;5063846;28;19916;-91
2023/10/18 06:23:09;;;;;;;;;;;4.50;99.90;;;;;;5012595;28;19921;-94
2023/10/18 06:25:35;;;;;;;;;;;4.50;99.90;;;;;;5019237;28;19916;-89
2023/10/18 06:28:06;;;;;;;;;;;4.60;99.90;;;;;;5012323;28;19923;-91
2023/10/18 06:30:35;;;;;;;;;;;4.50;99.90;;;;;;5027173;28;19971;-92
2023/10/18 06:33:06;;;;;;;;;;;4.60;99.90;;;;;;5019322;28;20364;-91
2023/10/18 06:35:32;;;;;;;;;;;4.60;99.90;;;;;;5028848;28;20058;-91
2023/10/18 06:38:01;;;;;;;;;;;4.70;99.90;;;;;;5005469;28;19962;-91
2023/10/18 06:43:16;;;;;;;;;;;4.70;99.90;;;;;;5042715;28;19917;-93
2023/10/18 06:45:42;;;;;;;;;;;4.70;99.90;;;;;;5014783;28;19927;-90
2023/10/18 06:48:14;;;;;;;;;;;4.70;99.90;;;;;;5004503;28;19946;-91
2023/10/18 06:50:40;;;;;;;;;;;4.80;99.90;;;;;;5019845;28;19952;-89
2023/10/18 06:53:06;;;;;;;;;;;4.70;99.90;;;;;;5002595;28;19916;-91
2023/10/18 06:58:41;;;;;;;;;;;4.90;99.90;;;;;;5016862;28;19917;-90
2023/10/18 07:01:09;;;;;;;;;;;4.90;99.90;;;;;;5024010;28;19921;-94
2023/10/18 07:03:37;;;;;;;;;;;5.00;99.90;;;;;;5007245;28;20668;-92
2023/10/18 07:06:16;;;;;;;;;;;5.00;99.90;;;;;;5024222;28;20337;-92
2023/10/18 07:08:44;;;;;;;;;;;5.10;99.90;;;;;;5003449;28;19928;-94
2023/10/18 07:11:16;;;;;;;;;;;5.10;99.90;;;;;;5018580;28;19924;-92
2023/10/18 07:13:46;;;;;;;;;;;5.20;99.90;;;;;;5000494;28;19924;-91
2023/10/18 07:16:14;;;;;;;;;;;5.20;99.90;;;;;;5003334;28;19920;-94
2023/10/18 07:18:42;;;;;;;;;;;5.20;99.90;;;;;;5019996;28;19917;-92
2023/10/18 07:21:09;;;;;;;;;;;5.30;99.90;;;;;;5003895;28;19920;-91
2023/10/18 07:23:39;;;;;;;;;;;5.40;99.90;;;;;;5034401;28;20015;-92
2023/10/18 07:26:16;;;;;;;;;;;5.40;99.90;;;;;;5023276;28;20340;-90
2023/10/18 07:28:43;;;;;;;;;;;5.50;99.90;;;;;;5038127;28;19916;-89
2023/10/18 07:31:10;;;;;;;;;;;5.60;99.90;;;;;;5055280;28;19962;-88
2023/10/18 07:33:40;;;;;;;;;;;5.80;99.90;;;;;;5055727;28;19920;-92
2023/10/18 07:36:07;;;;;;;;;;;5.60;99.90;;;;;;5023520;28;19916;-95
2023/10/18 07:38:33;;;;;;;;;;;5.70;99.90;;;;;;5041704;28;19920;-89
2023/10/18 07:41:03;;;;;;;;;;;5.70;99.90;;;;;;5028696;28;19917;-93
2023/10/18 07:43:32;;;;;;;;;;;5.80;99.90;;;;;;5022486;28;19924;-90
2023/10/18 07:45:58;;;;;;;;;;;5.90;99.90;;;;;;5039125;28;20290;-92
2023/10/18 07:48:24;;;;;;;;;;;5.90;99.90;;;;;;5036085;28;19999;-91
2023/10/18 07:50:50;;;;;;;;;;;6.00;99.90;;;;;;5053438;28;19975;-91
2023/10/18 07:53:16;;;;;;;;;;;6.20;99.90;;;;;;5013102;28;19979;-90
2023/10/18 07:55:42;;;;;;;;;;;6.30;99.90;;;;;;5055933;28;19920;-91
2023/10/18 07:58:32;;;;;;;;;;;6.40;99.90;;;;;;5021966;28;20002;-94
2023/10/18 08:03:27;;;;;;;;;;;5.60;99.90;;;;;;5048474;28;20377;-89
2023/10/18 08:05:55;;;;;;;;;;;6.60;99.90;;;;;;5042637;28;20355;-91
2023/10/18 08:08:24;;;;;;;;;;;6.70;99.90;;;;;;5066616;28;20006;-93
2023/10/18 08:10:59;;;;;;;;;;;6.70;99.90;;;;;;5025708;28;19916;-90
2023/10/18 08:13:28;;;;;;;;;;;6.80;99.90;;;;;;5058680;28;20352;-92
2023/10/18 08:15:54;;;;;;;;;;;6.80;99.90;;;;;;5034672;28;19916;-93
2023/10/18 08:19:07;;;;;;;;;;;6.80;99.90;;;;;;5041560;28;19916;-88
2023/10/18 08:24:20;;;;;;;;;;;7.00;99.90;;;;;;5032417;28;19960;-88
2023/10/18 08:26:46;;;;;;;;;;;7.10;99.90;;;;;;5022978;28;19916;-93
2023/10/18 08:29:15;;;;;;;;;;;7.10;99.90;;;;;;5025384;28;19920;-91
2023/10/18 08:31:48;;;;;;;;;;;7.20;99.90;;;;;;5056274;28;19935;-91
2023/10/18 08:34:18;;;;;;;;;;;7.30;99.90;;;;;;5026788;28;19923;-91
2023/10/18 08:36:44;;;;;;;;;;;6.20;99.90;;;;;;5039826;28;19921;-91
2023/10/18 08:39:10;;;;;;;;;;;7.40;99.90;;;;;;5041604;28;19970;-88
2023/10/18 08:41:44;;;;;;;;;;;7.30;99.90;;;;;;5025991;28;19928;-92
2023/10/18 08:44:19;;;;;;;;;;;7.50;99.90;;;;;;5054353;28;19935;-92
2023/10/18 08:49:22;;;;;;;;;;;7.50;99.90;;;;;;5061688;28;19948;-91
2023/10/18 08:51:54;;;;;;;;;;;7.50;99.90;;;;;;5025761;28;20011;-90
2023/10/18 08:54:22;;;;;;;;;;;7.50;99.90;;;;;;5041637;28;20003;-91
2023/10/18 08:56:52;;;;;;;;;;;7.50;99.90;;;;;;5042520;28;19920;-90
2023/10/18 08:59:20;;;;;;;;;;;7.50;99.90;;;;;;5023301;28;20481;-89
2023/10/18 09:02:09;;;;;;;;;;;7.60;99.90;;;;;;5039166;28;19979;-90
2023/10/18 09:04:35;;;;;;;;;;;7.60;99.90;;;;;;5042544;28;20374;-93
2023/10/18 09:07:17;;;;;;;;;;;7.70;99.90;;;;;;5041974;28;19923;-91
2023/10/18 09:09:50;;;;;;;;;;;6.60;99.90;;;;;;5041798;28;19923;-94
2023/10/18 09:12:17;;;;;;;;;;;7.70;99.90;;;;;;5037982;28;19927;-91
2023/10/18 09:14:50;;;;;;;;;;;7.80;99.90;;;;;;5046147;28;19916;-91
2023/10/18 09:17:21;;;;;;;;;;;7.40;99.90;;;;;;5021942;28;19920;-90
2023/10/18 09:19:51;;;;;;;;;;;8.00;99.90;;;;;;5040627;28;19974;-92
2023/10/18 09:22:17;;;;;;;;;;;8.00;99.90;;;;;;5044563;28;19924;-89
2023/10/18 09:24:43;;;;;;;;;;;8.40;99.90;;;;;;5058539;28;19916;-91
2023/10/18 09:27:09;;;;;;;;;;;8.30;99.90;;;;;;5025879;28;20327;-91
2023/10/18 09:29:36;;;;;;;;;;;7.30;99.90;;;;;;5056658;28;19923;-89
2023/10/18 09:32:09;;;;;;;;;;;8.20;99.90;;;;;;5024132;28;20377;-91
2023/10/18 09:34:38;;;;;;;;;;;8.30;99.90;;;;;;5053155;28;19970;-92
2023/10/18 09:37:13;;;;;;;;;;;8.30;99.90;;;;;;5026523;28;19968;-88
2023/10/18 09:39:42;;;;;;;;;;;8.30;99.90;;;;;;5055618;28;19923;-89
2023/10/18 09:42:20;;;;;;;;;;;8.40;99.90;;;;;;5023267;28;20367;-95
2023/10/18 09:44:45;;;;;;;;;;;8.40;99.90;;;;;;5039505;28;20395;-90
2023/10/18 09:47:11;;;;;;;;;;;8.50;99.90;;;;;;5032488;28;19959;-92
2023/10/18 09:49:39;;;;;;;;;;;8.50;99.90;;;;;;5023565;28;20513;-93
2023/10/18 09:52:07;;;;;;;;;;;8.10;99.90;;;;;;5040167;28;19942;-90
2023/10/18 09:54:36;;;;;;;;;;;8.60;99.90;;;;;;5047125;28;20048;-93
2023/10/18 09:57:02;;;;;;;;;;;8.60;99.90;;;;;;5032307;28;19920;-90
2023/10/18 09:59:37;;;;;;;;;;;8.70;99.90;;;;;;5055623;28;19916;-94
2023/10/18 10:02:15;;;;;;;;;;;8.80;99.90;;;;;;5055935;28;20401;-93
2023/10/18 10:04:43;;;;;;;;;;;8.80;99.90;;;;;;5049240;28;20421;-92
2023/10/18 10:09:59;;;;;;;;;;;9.00;99.90;;;;;;5041362;28;19917;-92
2023/10/18 10:12:29;;;;;;;;;;;9.10;99.90;;;;;;5039151;28;19923;-93
2023/10/18 10:14:54;;;;;;;;;;;9.20;99.90;;;;;;5024264;28;19916;-90
2023/10/18 10:17:21;;;;;;;;;;;9.20;99.90;;;;;;5023724;28;19942;-93
2023/10/18 10:19:54;;;;;;;;;;;9.30;99.90;;;;;;5057026;28;19923;-91
2023/10/18 10:22:24;;;;;;;;;;;9.40;99.90;;;;;;5028639;28;19927;-93
2023/10/18 10:25:00;;;;;;;;;;;9.40;99.90;;;;;;5024149;28;19947;-93
2023/10/18 10:30:19;;;;;;;;;;;9.40;99.90;;;;;;5035818;28;19917;-90
2023/10/18 10:32:46;;;;;;;;;;;9.50;99.90;;;;;;5015003;28;20019;-94
2023/10/18 10:35:15;;;;;;;;;;;9.50;99.90;;;;;;4999781;28;19917;-91
2023/10/18 10:37:47;;;;;;;;;;;9.60;99.90;;;;;;5027078;28;20334;-91
2023/10/18 10:40:30;;;;;;;;;;;9.60;99.90;;;;;;5039404;28;19959;-90
2023/10/18 10:43:02;;;;;;;;;;;9.60;99.90;;;;;;5033558;28;19925;-91
2023/10/18 10:45:30;;;;;;;;;;;9.70;99.90;;;;;;5028537;28;19916;-93
2023/10/18 10:47:57;;;;;;;;;;;9.70;99.90;;;;;;5026789;28;19962;-93
2023/10/18 10:50:42;;;;;;;;;;;9.70;99.90;;;;;;5004363;28;20352;-93
2023/10/18 10:53:08;;;;;;;;;;;9.70;99.90;;;;;;5017953;28;20287;-89
2023/10/18 10:55:34;;;;;;;;;;;9.90;99.90;;;;;;5020611;28;19924;-93
2023/10/18 10:58:17;;;;;;;;;;;9.80;99.90;;;;;;5022074;28;20276;-93
2023/10/18 11:01:06;;;;;;;;;;;9.90;99.90;;;;;;5020209;28;19920;-93
2023/10/18 11:03:54;;;;;;;;;;;10.00;99.90;;;;;;5002863;28;19920;-88
2023/10/18 11:06:21;;;;;;;;;;;10.00;99.90;;;;;;5019829;28;20000;-94
2023/10/18 11:08:47;;;;;;;;;;;9.20;99.90;;;;;;5000571;28;19917;-92
2023/10/18 11:11:14;;;;;;;;;;;10.10;99.90;;;;;;5020583;28;19928;-90
2023/10/18 11:13:42;;;;;;;;;;;10.10;99.90;;;;;;5009391;28;20142;-90
2023/10/18 11:16:11;;;;;;;;;;;10.10;99.90;;;;;;5018577;28;19956;-92
2023/10/18 11:18:42;;;;;;;;;;;10.10;99.90;;;;;;5020115;28;19920;-90
2023/10/18 11:21:24;;;;;;;;;;;10.20;99.90;;;;;;5008415;28;19921;-91
2023/10/18 11:23:51;;;;;;;;;;;10.20;99.90;;;;;;5022402;28;19940;-91
2023/10/18 11:26:19;;;;;;;;;;;10.10;99.90;;;;;;5040124;28;19920;-93
2023/10/18 11:28:48;;;;;;;;;;;10.20;99.90;;;;;;5041985;28;19927;-90
2023/10/18 11:31:14;;;;;;;;;;;10.20;99.90;;;;;;5025850;28;19924;-91
2023/10/18 11:33:59;;;;;;;;;;;10.20;99.90;;;;;;5055968;28;19916;-91
2023/10/18 11:36:27;;;;;;;;;;;10.20;99.90;;;;;;5024671;28;19917;-92
2023/10/18 11:41:38;;;;;;;;;;;10.30;99.90;;;;;;5038909;28;19925;-93
2023/10/18 11:44:06;;;;;;;;;;;10.30;99.90;;;;;;5040824;28;19925;-92
2023/10/18 11:46:46;;;;;;;;;;;10.30;99.90;;;;;;5072879;28;21000;-90
2023/10/18 11:49:18;;;;;;;;;;;10.40;99.90;;;;;;5042490;28;19923;-92
2023/10/18 11:51:48;;;;;;;;;;;10.30;99.90;;;;;;5060595;28;19927;-91
2023/10/18 11:54:47;;;;;;;;;;;10.30;99.90;;;;;;5031553;28;19976;-92
2023/10/18 11:57:26;;;;;;;;;;;10.30;99.90;;;;;;5006204;28;20454;-90
2023/10/18 11:59:53;;;;;;;;;;;10.40;99.90;;;;;;5039831;28;19917;-88
2023/10/18 12:02:19;;;;;;;;;;;10.40;99.90;;;;;;5055015;28;19924;-94
2023/10/18 12:04:45;;;;;;;;;;;10.40;99.90;;;;;;5041571;28;19920;-93
2023/10/18 12:07:13;;;;;;;;;;;10.40;99.90;;;;;;5029006;28;19916;-91
2023/10/18 12:09:45;;;;;;;;;;;10.40;99.90;;;;;;5027028;28;19995;-91
2023/10/18 12:12:14;;;;;;;;;;;10.40;99.90;;;;;;5027586;28;20163;-92
2023/10/18 12:14:41;;;;;;;;;;;10.50;99.90;;;;;;5038453;28;19916;-94
2023/10/18 12:17:07;;;;;;;;;;;10.50;99.90;;;;;;5029612;28;19999;-91
2023/10/18 12:19:37;;;;;;;;;;;10.50;99.90;;;;;;5041310;28;19920;-92
2023/10/18 12:22:04;;;;;;;;;;;10.40;99.90;;;;;;5066939;28;19924;-94
2023/10/18 12:24:33;;;;;;;;;;;10.50;99.90;;;;;;5041960;28;19920;-94
2023/10/18 12:29:46;;;;;;;;;;;10.50;99.90;;;;;;5048408;28;19916;-94
2023/10/18 12:32:50;;;;;;;;;;;10.50;99.90;;;;;;5042769;28;19924;-93
2023/10/18 12:35:07;;;;;;;;;;;10.50;99.90;;;;;;5032810;28;19966;-92
2023/10/18 12:37:33;;;;;;;;;;;10.50;99.90;;;;;;5020628;28;19916;-89
2023/10/18 12:40:00;;;;;;;;;;;10.60;99.90;;;;;;5022701;28;19928;-93
2023/10/18 12:42:33;;;;;;;;;;;10.60;99.90;;;;;;5045283;28;19920;-93
2023/10/18 12:45:09;;;;;;;;;;;10.40;99.90;;;;;;5040769;28;19969;-91
2023/10/18 12:47:34;;;;;;;;;;;10.60;99.90;;;;;;5043905;28;19924;-92
2023/10/18 12:50:03;;;;;;;;;;;10.60;99.90;;;;;;5019990;28;19916;-91
2023/10/18 12:55:28;;;;;;;;;;;10.60;99.90;;;;;;5058743;28;19920;-93
2023/10/18 12:57:50;;;;;;;;;;;10.80;99.90;;;;;;5053927;28;20022;-93
2023/10/18 13:00:16;;;;;;;;;;;10.80;99.90;;;;;;5030266;28;19916;-92
2023/10/18 13:03:15;;;;;;;;;;;10.70;99.90;;;;;;5030014;28;19931;-94
2023/10/18 13:05:43;;;;;;;;;;;10.70;99.90;;;;;;5055414;28;19923;-93
2023/10/18 13:08:17;;;;;;;;;;;10.70;99.90;;;;;;5033507;28;19967;-94
2023/10/18 13:10:48;;;;;;;;;;;10.70;99.90;;;;;;5027400;28;19920;-91
2023/10/18 13:13:16;;;;;;;;;;;10.70;99.90;;;;;;5041364;28;19920;-91
2023/10/18 13:15:44;;;;;;;;;;;12.00;99.90;;;;;;5038042;28;20015;-90
2023/10/18 13:18:13;;;;;;;;;;;10.70;99.90;;;;;;5041622;28;20007;-90
2023/10/18 13:20:43;;;;;;;;;;;10.70;99.90;;;;;;5023673;28;19959;-91
2023/10/18 13:23:09;;;;;;;;;;;10.70;99.90;;;;;;5021811;28;19925;-92
2023/10/18 13:25:49;;;;;;;;;;;10.70;99.90;;;;;;5021615;28;19929;-90
2023/10/18 13:28:33;;;;;;;;;;;10.80;99.90;;;;;;5007785;28;20265;-91
2023/10/18 13:31:09;;;;;;;;;;;10.70;99.90;;;;;;5022370;28;19951;-92
2023/10/18 13:33:35;;;;;;;;;;;10.70;99.90;;;;;;5020205;28;19917;-91
2023/10/18 13:36:08;;;;;;;;;;;10.70;99.90;;;;;;5014779;28;19940;-94
2023/10/18 13:38:36;;;;;;;;;;;10.70;99.90;;;;;;5021754;28;19917;-93
2023/10/18 13:41:07;;;;;;;;;;;10.60;99.90;;;;;;5038391;28;19927;-91
2023/10/18 13:43:35;;;;;;;;;;;10.60;99.90;;;;;;5019950;28;19947;-91
2023/10/18 13:46:01;;;;;;;;;;;10.60;99.90;;;;;;5020346;28;19916;-90
2023/10/18 13:48:27;;;;;;;;;;;10.60;99.90;;;;;;4996888;28;19924;-93
2023/10/18 13:51:02;;;;;;;;;;;10.60;99.90;;;;;;5032956;28;19924;-88
2023/10/18 13:53:28;;;;;;;;;;;10.50;99.90;;;;;;5018188;28;20011;-92
2023/10/18 13:56:00;;;;;;;;;;;10.50;99.90;;;;;;5054524;28;19916;-93
2023/10/18 13:58:29;;;;;;;;;;;10.50;99.90;;;;;;5032207;28;19956;-93
2023/10/18 14:00:55;;;;;;;;;;;10.50;99.90;;;;;;5003550;28;19924;-92
2023/10/18 14:03:23;;;;;;;;;;;10.50;99.90;;;;;;5006066;28;20260;-92
2023/10/18 14:05:49;;;;;;;;;;;10.50;99.90;;;;;;5005751;28;19917;-91
2023/10/18 14:08:18;;;;;;;;;;;10.50;99.90;;;;;;5020580;28;19917;-91
2023/10/18 14:10:47;;;;;;;;;;;10.50;99.90;;;;;;5020585;28;20367;-89
2023/10/18 14:13:14;;;;;;;;;;;10.60;99.90;;;;;;5001372;28;19939;-93
2023/10/18 14:15:40;;;;;;;;;;;10.50;99.90;;;;;;5021351;28;19916;-90
2023/10/18 14:18:06;;;;;;;;;;;10.60;99.90;;;;;;5023740;28;19916;-93
2023/10/18 14:20:37;;;;;;;;;;;10.60;99.90;;;;;;5009450;28;19916;-91
2023/10/18 14:23:07;;;;;;;;;;;10.60;99.90;;;;;;5016935;28;19920;-93
2023/10/18 14:25:33;;;;;;;;;;;10.60;99.90;;;;;;4992789;28;19921;-92
2023/10/18 14:27:58;;;;;;;;;;;10.60;99.90;;;;;;5013660;28;19952;-91
2023/10/18 14:30:27;;;;;;;;;;;10.60;99.90;;;;;;5021820;28;20006;-91
2023/10/18 14:32:58;;;;;;;;;;;10.50;99.90;;;;;;5006434;28;19920;-94
2023/10/18 14:35:25;;;;;;;;;;;10.50;99.90;;;;;;5001856;28;19999;-90
2023/10/18 14:37:51;;;;;;;;;;;10.50;99.90;;;;;;5004544;28;20000;-94
2023/10/18 14:40:23;;;;;;;;;;;10.50;99.90;;;;;;5027274;28;20013;-89
2023/10/18 14:42:52;;;;;;;;;;;10.40;99.90;;;;;;5016851;28;19928;-93
2023/10/18 14:45:18;;;;;;;;;;;10.40;99.90;;;;;;5004649;28;19917;-92
2023/10/18 14:47:43;;;;;;;;;;;10.40;99.90;;;;;;5022124;28;20287;-91
2023/10/18 14:50:10;;;;;;;;;;;10.40;99.90;;;;;;5020522;28;19960;-89
2023/10/18 14:52:42;;;;;;;;;;;10.30;99.90;;;;;;5015484;28;19920;-90
2023/10/18 14:55:14;;;;;;;;;;;10.40;99.90;;;;;;5017900;28;19917;-92
2023/10/18 14:57:42;;;;;;;;;;;10.30;99.90;;;;;;5021181;28;19970;-92
2023/10/18 15:00:12;;;;;;;;;;;10.20;99.90;;;;;;5020011;28;19931;-92
2023/10/18 15:02:41;;;;;;;;;;;10.20;99.90;;;;;;5018287;28;19920;-95
2023/10/18 15:05:14;;;;;;;;;;;10.20;99.90;;;;;;5020153;28;19924;-92
2023/10/18 15:07:39;;;;;;;;;;;10.10;99.90;;;;;;5004806;28;19968;-91
2023/10/18 15:10:08;;;;;;;;;;;10.10;99.90;;;;;;5007608;28;19947;-91
2023/10/18 15:12:36;;;;;;;;;;;10.10;99.90;;;;;;5003897;28;19917;-93
2023/10/18 15:15:02;;;;;;;;;;;10.00;99.90;;;;;;5020000;28;19927;-92
2023/10/18 15:17:28;;;;;;;;;;;10.00;99.90;;;;;;5020166;28;19924;-91
2023/10/18 15:19:55;;;;;;;;;;;10.00;99.90;;;;;;5014356;28;19999;-91
2023/10/18 15:22:21;;;;;;;;;;;10.00;99.90;;;;;;5016829;28;19921;-90
2023/10/18 15:24:59;;;;;;;;;;;10.00;99.90;;;;;;5004124;28;19921;-92
2023/10/18 15:27:26;;;;;;;;;;;9.90;99.90;;;;;;5009120;28;19956;-89
2023/10/18 15:30:06;;;;;;;;;;;9.80;99.90;;;;;;5006853;28;19917;-91
2023/10/18 15:32:42;;;;;;;;;;;9.80;99.90;;;;;;5032632;28;19946;-93
2023/10/18 15:35:15;;;;;;;;;;;9.80;99.90;;;;;;5025557;28;19923;-92
2023/10/18 15:37:41;;;;;;;;;;;9.00;99.90;;;;;;5034782;28;19924;-94
2023/10/18 15:40:13;;;;;;;;;;;9.80;99.90;;;;;;5020995;28;19970;-93
2023/10/18 15:42:47;;;;;;;;;;;9.80;99.90;;;;;;5021651;28;20584;-94